Time;durP1;ratioP1;P1;durP2;ratioP2;P2;SDS_P1;SDS_P2;PMS_P1;PMS_P2;Temp;Humidity;BMP_temperature;BMP_pressure;BME280_temperature;BME280_humidity;BME280_pressure;Samples;Min_cycle;Max_cycle;Signal;HPM_P1;HPM_P2
2022/08/29 00:00:19;;;;;;;9.63;7.10;;;;;;;19.45;100.00;98263.67;1813268;77;28081;-86
2022/08/29 00:02:51;;;;;;;13.50;7.60;;;;;;;19.45;100.00;98269.81;1815502;77;28152;-86
2022/08/29 00:05:20;;;;;;;11.50;8.05;;;;;;;19.41;100.00;98271.11;1821007;77;28134;-86
2022/08/29 00:07:47;;;;;;;11.45;6.70;;;;;;;19.40;100.00;98270.78;1815293;77;28122;-86
2022/08/29 00:10:14;;;;;;;13.03;6.83;;;;;;;19.43;100.00;98270.92;1817802;77;27991;-86
2022/08/29 00:12:40;;;;;;;12.18;6.80;;;;;;;19.44;100.00;98271.27;1809067;78;28076;-86
2022/08/29 00:15:11;;;;;;;10.75;7.33;;;;;;;19.47;100.00;98269.65;1812931;78;28073;-86
2022/08/29 00:17:37;;;;;;;12.20;6.95;;;;;;;19.44;100.00;98271.27;1813820;78;28121;-86
2022/08/29 00:20:06;;;;;;;12.15;6.72;;;;;;;19.39;100.00;98265.63;1817226;78;28081;-86
2022/08/29 00:22:32;;;;;;;9.60;6.53;;;;;;;19.36;100.00;98268.13;1809743;78;28094;-86
2022/08/29 00:25:03;;;;;;;11.35;6.97;;;;;;;19.36;100.00;98274.77;1814516;78;28060;-87
2022/08/29 00:27:27;;;;;;;11.35;6.40;;;;;;;19.34;100.00;98273.27;1817316;77;28056;-86
2022/08/29 00:29:55;;;;;;;8.25;6.25;;;;;;;19.35;100.00;98276.25;1818396;78;28101;-86
2022/08/29 00:32:22;;;;;;;11.85;5.85;;;;;;;19.35;100.00;98281.56;1820636;76;28043;-87
2022/08/29 00:34:53;;;;;;;8.40;5.75;;;;;;;19.36;100.00;98281.41;1820062;78;28141;-87
2022/08/29 00:37:20;;;;;;;11.45;5.83;;;;;;;19.34;100.00;98283.38;1791361;78;41610;-86
2022/08/29 00:39:47;;;;;;;9.08;5.92;;;;;;;19.35;100.00;98275.76;1812501;77;28098;-86
2022/08/29 00:42:13;;;;;;;8.65;5.28;;;;;;;19.38;100.00;98275.41;1817047;77;28077;-85
2022/08/29 00:44:39;;;;;;;12.75;5.70;;;;;;;19.41;100.00;98277.75;1811806;78;28077;-86
2022/08/29 00:47:09;;;;;;;9.53;5.95;;;;;;;19.43;100.00;98277.06;1816088;78;28106;-86
2022/08/29 00:49:45;;;;;;;11.83;5.53;;;;;;;19.38;100.00;98281.21;1815957;77;28163;-86
2022/08/29 00:52:15;;;;;;;12.58;6.00;;;;;;;19.37;100.00;98275.56;1814218;78;28148;-86
2022/08/29 00:54:45;;;;;;;8.13;5.10;;;;;;;19.36;100.00;98276.09;1810859;77;28114;-85
2022/08/29 00:57:12;;;;;;;8.95;4.72;;;;;;;19.36;100.00;98270.78;1806712;76;28077;-86
2022/08/29 00:59:40;;;;;;;8.13;4.95;;;;;;;19.31;100.00;98274.94;1811377;77;28107;-86
2022/08/29 01:02:09;;;;;;;7.65;5.00;;;;;;;19.33;100.00;98279.06;1818249;76;28092;-86
2022/08/29 01:04:38;;;;;;;9.78;4.92;;;;;;;19.36;100.00;98275.27;1815180;77;28134;-85
2022/08/29 01:07:06;;;;;;;9.33;5.28;;;;;;;19.37;100.00;98278.22;1812986;77;28056;-86
2022/08/29 01:09:34;;;;;;;5.45;4.58;;;;;;;19.35;100.00;98278.91;1813764;78;28137;-86
2022/08/29 01:12:16;;;;;;;7.65;5.05;;;;;;;19.34;100.00;98280.73;1807865;78;28146;-86
2022/08/29 01:14:46;;;;;;;;;;;;;;;19.34;100.00;98278.07;1815227;78;28191;-85
2022/08/29 01:17:15;;;;;;;7.92;4.35;;;;;;;19.31;100.00;98277.06;1811499;78;24582;-86
2022/08/29 01:19:58;;;;;;;5.72;4.28;;;;;;;19.29;100.00;98278.23;1805621;78;28081;-86
2022/08/29 01:22:40;;;;;;;8.63;4.33;;;;;;;19.24;100.00;98280.06;1809178;78;28099;-85
2022/08/29 01:25:11;;;;;;;7.10;4.05;;;;;;;19.20;100.00;98276.09;1809634;78;28191;-86
2022/08/29 01:27:41;;;;;;;8.68;4.45;;;;;;;19.21;100.00;98276.40;1806694;78;28045;-85
2022/08/29 01:30:08;;;;;;;7.75;4.17;;;;;;;19.18;100.00;98277.58;1805029;78;28175;-86
2022/08/29 01:32:34;;;;;;;8.25;3.87;;;;;;;19.12;100.00;98276.91;1812250;78;28033;-86
2022/08/29 01:35:01;;;;;;;7.75;4.85;;;;;;;19.11;100.00;98277.89;1806659;78;28095;-86
2022/08/29 01:37:32;;;;;;;7.08;5.20;;;;;;;19.12;100.00;98272.09;1810472;78;28143;-86
2022/08/29 01:39:58;;;;;;;7.47;3.87;;;;;;;19.08;100.00;98268.12;1812481;77;28481;-86
2022/08/29 01:42:25;;;;;;;13.03;4.62;;;;;;;19.09;100.00;98276.41;1803056;77;28026;-86
2022/08/29 01:44:55;;;;;;;8.28;4.08;;;;;;;19.10;100.00;98278.05;1812512;78;28100;-86
2022/08/29 01:47:24;;;;;;;6.28;3.62;;;;;;;19.09;100.00;98280.39;1809158;78;28038;-86
2022/08/29 01:49:52;;;;;;;10.13;4.53;;;;;;;19.10;100.00;98279.37;1810989;78;28092;-86
2022/08/29 01:52:26;;;;;;;8.95;4.47;;;;;;;19.12;100.00;98282.21;1807347;78;28073;-86
2022/08/29 01:54:52;;;;;;;6.12;3.85;;;;;;;19.12;100.00;98289.34;1816864;78;28035;-87
2022/08/29 01:57:22;;;;;;;7.95;4.95;;;;;;;19.16;100.00;98284.86;1813288;78;28140;-87
2022/08/29 01:59:50;;;;;;;10.50;4.42;;;;;;;19.20;100.00;98282.20;1806983;78;28074;-87
2022/08/29 02:02:20;;;;;;;7.67;4.47;;;;;;;19.26;100.00;98280.71;1807648;77;28095;-86
2022/08/29 02:04:47;;;;;;;7.20;4.08;;;;;;;19.27;100.00;98279.72;1811635;77;28185;-86
2022/08/29 02:07:18;;;;;;;9.18;4.30;;;;;;;19.28;100.00;98283.20;1809446;78;28086;-85
2022/08/29 02:09:46;;;;;;;9.28;4.20;;;;;;;19.29;100.00;98287.52;1809782;77;28070;-86
2022/08/29 02:12:13;;;;;;;10.68;4.83;;;;;;;19.26;100.00;98288.67;1822383;77;28096;-86
2022/08/29 02:14:40;;;;;;;10.05;4.62;;;;;;;19.27;100.00;98289.01;1824043;77;28061;-85
2022/08/29 02:17:07;;;;;;;7.87;4.40;;;;;;;19.28;100.00;98289.84;1824737;77;28155;-86
2022/08/29 02:19:35;;;;;;;7.35;4.47;;;;;;;19.29;100.00;98287.52;1818351;77;27967;-85
2022/08/29 02:22:03;;;;;;;9.65;4.47;;;;;;;19.28;100.00;98285.86;1804497;77;28180;-86
2022/08/29 02:24:29;;;;;;;8.83;4.62;;;;;;;19.28;100.00;98292.00;1815838;77;28106;-86
2022/08/29 02:26:59;;;;;;;7.17;3.87;;;;;;;19.28;100.00;98295.15;1815457;77;28096;-86
2022/08/29 02:29:27;;;;;;;9.40;3.85;;;;;;;19.21;100.00;98294.48;1832029;77;28382;-85
2022/08/29 02:31:56;;;;;;;8.70;3.92;;;;;;;19.16;100.00;98295.97;1821344;77;28005;-86
2022/08/29 02:34:22;;;;;;;6.90;3.35;;;;;;;19.14;100.00;98299.30;1827344;77;28020;-86
2022/08/29 02:36:49;;;;;;;5.83;3.08;;;;;;;19.10;100.00;98304.08;1820286;77;28082;-86
2022/08/29 02:39:17;;;;;;;5.42;3.27;;;;;;;19.08;100.00;98302.60;1818833;77;28112;-86
2022/08/29 02:41:56;;;;;;;6.60;3.05;;;;;;;19.03;100.00;98304.42;1823218;77;28069;-86
2022/08/29 02:44:23;;;;;;;6.60;3.08;;;;;;;19.01;100.00;98306.40;1824442;77;28093;-86
2022/08/29 02:46:49;;;;;;;6.75;2.98;;;;;;;19.00;100.00;98312.69;1827601;77;28110;-86
2022/08/29 02:49:16;;;;;;;7.85;3.05;;;;;;;19.01;100.00;98309.55;1820222;77;28151;-85
2022/08/29 02:51:45;;;;;;;8.30;2.83;;;;;;;19.01;100.00;98310.38;1824384;77;28097;-86
2022/08/29 02:54:12;;;;;;;5.45;2.95;;;;;;;19.01;100.00;98309.55;1814499;77;28061;-86
2022/08/29 02:56:45;;;;;;;7.53;2.90;;;;;;;19.00;100.00;98316.67;1822048;77;28140;-86
2022/08/29 02:59:12;;;;;;;5.53;2.70;;;;;;;18.97;100.00;98313.03;1825305;77;28077;-86
2022/08/29 03:01:43;;;;;;;6.72;2.22;;;;;;;18.97;100.00;98313.52;1822782;77;28496;-86
2022/08/29 03:04:09;;;;;;;5.65;2.60;;;;;;;18.90;100.00;98312.50;1827324;77;28156;-86
2022/08/29 03:06:35;;;;;;;3.60;2.20;;;;;;;18.88;100.00;98311.83;1820831;77;28077;-86
2022/08/29 03:09:02;;;;;;;7.30;2.72;;;;;;;18.87;100.00;98309.70;1815098;77;28130;-86
2022/08/29 03:11:29;;;;;;;8.65;3.05;;;;;;;18.88;100.00;98309.17;1815804;77;28111;-86
2022/08/29 03:13:59;;;;;;;3.27;2.42;;;;;;;18.89;100.00;98308.19;1805887;78;28124;-86
2022/08/29 03:16:35;;;;;;;6.62;2.87;;;;;;;18.89;100.00;98312.17;1816498;77;28131;-86
2022/08/29 03:19:02;;;;;;;6.42;2.85;;;;;;;18.89;100.00;98314.81;1814656;77;28123;-86
2022/08/29 03:21:28;;;;;;;5.37;2.35;;;;;;;18.86;100.00;98314.66;1812699;77;28158;-86
2022/08/29 03:23:55;;;;;;;7.83;2.35;;;;;;;18.80;100.00;98310.00;1817647;77;28520;-86
2022/08/29 03:26:22;;;;;;;6.55;2.50;;;;;;;18.82;100.00;98310.65;1766442;78;28048;-86
2022/08/29 03:28:51;;;;;;;9.33;2.45;;;;;;;18.85;100.00;98313.48;1808887;77;28615;-86
2022/08/29 03:31:20;;;;;;;5.03;2.70;;;;;;;18.86;100.00;98313.34;1814550;77;28098;-86
2022/08/29 03:33:46;;;;;;;8.35;2.60;;;;;;;18.87;100.00;98318.98;1821182;78;28161;-86
2022/08/29 03:36:13;;;;;;;4.60;2.40;;;;;;;18.87;100.00;98316.82;1790173;78;28033;-86
2022/08/29 03:38:39;;;;;;;4.55;2.55;;;;;;;18.88;100.00;98315.80;1815922;77;28076;-86
2022/08/29 03:41:07;;;;;;;6.35;2.52;;;;;;;18.88;100.00;98319.28;1809270;78;28097;-86
2022/08/29 03:43:35;;;;;;;6.37;2.65;;;;;;;18.88;100.00;98327.25;1815816;78;28078;-86
2022/08/29 03:46:01;;;;;;;6.05;2.22;;;;;;;18.86;100.00;98331.90;1809259;78;28068;-86
2022/08/29 03:48:27;;;;;;;9.03;2.87;;;;;;;18.85;100.00;98334.21;1811868;77;28453;-86
2022/08/29 03:50:53;;;;;;;6.50;2.50;;;;;;;18.86;100.00;98337.70;1816468;78;27999;-86
2022/08/29 03:53:19;;;;;;;4.10;2.40;;;;;;;18.83;100.00;98338.00;1818256;78;28138;-86
2022/08/29 03:55:50;;;;;;;7.35;2.58;;;;;;;18.82;100.00;98341.67;1812921;77;43043;-86
2022/08/29 03:58:16;;;;;;;5.55;2.67;;;;;;;18.82;100.00;98343.00;1815914;78;28169;-85
2022/08/29 04:00:45;;;;;;;6.53;3.22;;;;;;;18.79;100.00;98342.31;1816831;77;28145;-85
2022/08/29 04:03:12;;;;;;;6.28;2.67;;;;;;;18.78;100.00;98334.51;1814365;78;28076;-85
2022/08/29 04:05:39;;;;;;;5.22;2.50;;;;;;;18.75;100.00;98338.33;1812116;77;28104;-85
2022/08/29 04:08:07;;;;;;;6.65;2.92;;;;;;;18.74;100.00;98342.46;1807810;78;28138;-85
2022/08/29 04:10:42;;;;;;;10.72;3.20;;;;;;;18.72;100.00;98339.96;1817471;77;28152;-85
2022/08/29 04:13:08;;;;;;;6.08;2.80;;;;;;;18.66;100.00;98346.39;1828646;77;28116;-85
2022/08/29 04:15:36;;;;;;;6.15;2.87;;;;;;;18.63;100.00;98342.26;1824140;77;28077;-85
2022/08/29 04:18:05;;;;;;;5.30;2.80;;;;;;;18.63;100.00;98343.59;1822744;77;28208;-85
2022/08/29 04:20:34;;;;;;;7.42;3.30;;;;;;;18.64;100.00;98349.72;1815843;77;28229;-85
2022/08/29 04:23:02;;;;;;;6.58;3.00;;;;;;;18.64;100.00;98358.50;1823127;77;28095;-86
2022/08/29 04:25:35;;;;;;;7.25;3.00;;;;;;;18.62;100.00;98360.97;1826526;77;28132;-85
2022/08/29 04:28:01;;;;;;;4.53;2.52;;;;;;;18.57;100.00;98362.77;1829329;77;28101;-86
2022/08/29 04:30:34;;;;;;;7.97;3.27;;;;;;;18.49;100.00;98366.70;1827018;77;28147;-86
2022/08/29 04:33:01;;;;;;;9.20;3.30;;;;;;;18.45;100.00;98369.80;1821414;77;28038;-86
2022/08/29 04:35:27;;;;;;;7.97;3.00;;;;;;;18.44;100.00;98366.83;1824578;77;28082;-87
2022/08/29 04:37:54;;;;;;;5.80;2.92;;;;;;;18.48;100.00;98374.30;1824928;77;28092;-86
2022/08/29 04:40:21;;;;;;;8.30;3.30;;;;;;;18.55;100.00;98371.37;1826707;77;28133;-85
2022/08/29 04:42:48;;;;;;;7.05;3.12;;;;;;;18.57;100.00;98376.02;1825443;77;28183;-86
2022/08/29 04:45:18;;;;;;;5.33;2.60;;;;;;;18.57;100.00;98374.70;1801569;77;27987;-85
2022/08/29 04:47:45;;;;;;;5.45;2.70;;;;;;;18.61;100.00;98377.85;1823851;77;28066;-86
2022/08/29 04:50:15;;;;;;;6.45;2.37;;;;;;;18.65;100.00;98385.84;1820172;77;28089;-86
2022/08/29 04:52:42;;;;;;;6.70;2.85;;;;;;;18.67;100.00;98384.68;1821351;77;28101;-85
2022/08/29 04:55:17;;;;;;;8.48;3.15;;;;;;;18.70;100.00;98385.70;1825053;77;28091;-85
2022/08/29 04:57:44;;;;;;;4.60;2.65;;;;;;;18.71;100.00;98393.97;1824220;77;28011;-85
2022/08/29 05:00:14;;;;;;;10.03;2.90;;;;;;;18.72;100.00;98391.66;1824054;77;28561;-85
2022/08/29 05:02:43;;;;;;;4.80;2.60;;;;;;;18.75;100.00;98401.13;1824269;77;28001;-86
2022/08/29 05:05:11;;;;;;;7.40;3.05;;;;;;;18.72;100.00;98410.22;1823902;77;28094;-85
2022/08/29 05:07:37;;;;;;;7.15;3.02;;;;;;;18.73;100.00;98411.88;1819162;77;28094;-86
2022/08/29 05:10:08;;;;;;;4.53;2.90;;;;;;;18.72;100.00;98412.03;1822982;77;28078;-86
2022/08/29 05:12:36;;;;;;;6.95;2.90;;;;;;;18.69;100.00;98415.85;1812061;77;27999;-86
2022/08/29 05:15:05;;;;;;;6.03;3.17;;;;;;;18.63;100.00;98413.00;1812170;78;28056;-86
2022/08/29 05:17:31;;;;;;;8.35;3.35;;;;;;;18.56;100.00;98417.26;1816523;78;28176;-85
2022/08/29 05:19:58;;;;;;;4.78;2.70;;;;;;;18.51;100.00;98413.73;1818048;78;28105;-85
2022/08/29 05:22:27;;;;;;;6.42;3.15;;;;;;;18.49;100.00;98422.35;1808942;78;27971;-85
2022/08/29 05:24:55;;;;;;;4.67;3.00;;;;;;;18.45;100.00;98420.98;1813786;77;28098;-85
2022/08/29 05:27:22;;;;;;;5.72;2.98;;;;;;;18.46;100.00;98421.32;1814003;78;28019;-86
2022/08/29 05:29:54;;;;;;;5.20;2.90;;;;;;;18.50;100.00;98421.34;1813971;77;28100;-85
2022/08/29 05:32:20;;;;;;;5.95;3.02;;;;;;;18.54;100.00;98425.39;1816244;77;28034;-85
2022/08/29 05:34:48;;;;;;;8.18;3.52;;;;;;;18.62;100.00;98432.05;1809876;77;28121;-85
2022/08/29 05:37:19;;;;;;;7.03;2.80;;;;;;;18.54;100.00;98428.50;1820689;78;28032;-85
2022/08/29 05:39:46;;;;;;;13.45;3.12;;;;;;;18.49;100.00;98429.47;1814966;78;28150;-86
2022/08/29 05:42:12;;;;;;;9.48;3.55;;;;;;;18.46;100.00;98441.69;1818378;77;28070;-85
2022/08/29 05:44:40;;;;;;;6.45;3.35;;;;;;;18.39;100.00;98439.66;1812842;78;28191;-85
2022/08/29 05:47:08;;;;;;;9.00;3.98;;;;;;;18.30;100.00;98437.95;1816896;77;28128;-85
2022/08/29 05:49:41;;;;;;;6.97;3.52;;;;;;;18.16;100.00;98437.20;1814235;77;27999;-85
2022/08/29 05:52:08;;;;;;;7.25;3.45;;;;;;;18.09;100.00;98441.45;1815886;76;28158;-85
2022/08/29 05:54:39;;;;;;;7.67;3.90;;;;;;;18.09;100.00;98440.61;1816194;77;28082;-86
2022/08/29 05:57:08;;;;;;;7.08;3.65;;;;;;;18.03;100.00;98439.41;1811905;77;28144;-85
2022/08/29 05:59:37;;;;;;;5.28;3.75;;;;;;;17.97;100.00;98441.34;1813453;77;28133;-86
2022/08/29 06:02:08;;;;;;;7.92;4.37;;;;;;;18.02;100.00;98444.36;1809787;77;28239;-86
2022/08/29 06:04:34;;;;;;;6.53;4.50;;;;;;;18.03;100.00;98450.50;1808393;78;28019;-86
2022/08/29 06:07:04;;;;;;;6.78;4.12;;;;;;;18.05;100.00;98450.70;1813652;78;28200;-87
2022/08/29 06:09:30;;;;;;;6.35;4.95;;;;;;;18.08;100.00;98454.34;1787561;78;28070;-85
2022/08/29 06:12:01;;;;;;;9.35;5.35;;;;;;;18.21;100.00;98449.98;1823208;77;28048;-87
2022/08/29 06:14:26;;;;;;;7.28;5.12;;;;;;;18.30;100.00;98454.34;1820085;77;28074;-86
2022/08/29 06:16:53;;;;;;;8.63;6.05;;;;;;;18.31;100.00;98454.69;1827335;77;27998;-85
2022/08/29 06:19:20;;;;;;;7.22;5.37;;;;;;;18.25;100.00;98462.76;1826391;77;28163;-85
2022/08/29 06:21:47;;;;;;;7.08;5.40;;;;;;;18.28;100.00;98468.23;1832808;77;28121;-85
2022/08/29 06:24:17;;;;;;;6.85;4.40;;;;;;;18.38;100.00;98471.64;1793327;77;28087;-85
2022/08/29 06:26:44;;;;;;;9.45;4.65;;;;;;;18.43;100.00;98473.33;1829286;77;28120;-86
2022/08/29 06:29:11;;;;;;;8.48;4.75;;;;;;;18.45;100.00;98476.63;1825866;77;28077;-86
2022/08/29 06:31:42;;;;;;;12.37;4.17;;;;;;;18.47;100.00;98477.31;1825335;77;28164;-86
2022/08/29 06:34:10;;;;;;;6.40;4.25;;;;;;;18.51;100.00;98481.80;1790883;77;28171;-87
2022/08/29 06:36:40;;;;;;;8.43;4.45;;;;;;;18.55;100.00;98481.36;1825024;77;28106;-87
2022/08/29 06:39:09;;;;;;;10.53;5.30;;;;;;;18.57;100.00;98478.08;1821437;76;28117;-86
2022/08/29 06:41:40;;;;;;;8.58;5.10;;;;;;;18.53;100.00;98491.28;1829558;77;28092;-87
2022/08/29 06:44:08;;;;;;;9.63;6.35;;;;;;;18.50;100.00;98491.57;1831324;77;28085;-87
2022/08/29 06:46:44;;;;;;;11.78;5.75;;;;;;;18.50;100.00;98491.57;1829398;77;28056;-86
2022/08/29 06:49:19;;;;;;;7.80;5.45;;;;;;;18.54;100.00;98494.30;1820617;77;28054;-87
2022/08/29 06:51:49;;;;;;;6.78;4.53;;;;;;;18.61;100.00;98497.97;1825421;77;28172;-86
2022/08/29 06:54:17;;;;;;;8.78;5.28;;;;;;;18.68;100.00;98504.32;1825028;77;28120;-86
2022/08/29 06:56:44;;;;;;;8.23;5.05;;;;;;;18.66;100.00;98502.80;1826639;77;28163;-86
2022/08/29 06:59:11;;;;;;;9.58;5.10;;;;;;;18.72;100.00;98512.29;1825972;77;28114;-86
2022/08/29 07:01:41;;;;;;;8.40;5.55;;;;;;;18.73;100.00;98512.64;1823854;77;28056;-86
2022/08/29 07:04:10;;;;;;;7.28;4.90;;;;;;;18.75;100.00;98512.00;1799161;77;28108;-87
2022/08/29 07:06:40;;;;;;;9.55;5.33;;;;;;;18.82;100.00;98516.67;1824412;77;28110;-85
2022/08/29 07:09:07;;;;;;;8.58;4.60;;;;;;;18.88;100.00;98515.53;1828658;77;28121;-85
2022/08/29 07:11:35;;;;;;;8.68;4.75;;;;;;;18.99;100.00;98513.09;1811723;77;28088;-86
2022/08/29 07:14:05;;;;;;;7.10;4.65;;;;;;;18.99;100.00;98509.95;1794552;78;28013;-85
2022/08/29 07:16:34;;;;;;;6.33;4.12;;;;;;;18.98;100.00;98513.63;1792633;79;28106;-85
2022/08/29 07:19:05;;;;;;;8.93;4.62;;;;;;;19.00;100.00;98518.25;1788774;79;28095;-86
2022/08/29 07:21:38;;;;;;;9.28;4.95;;;;;;;19.03;100.00;98517.13;1791455;79;28216;-85
2022/08/29 07:24:06;;;;;;;13.90;5.87;;;;;;;19.05;100.00;98515.13;1795058;78;28183;-85
2022/08/29 07:26:37;;;;;;;9.75;4.95;;;;;;;19.05;100.00;98513.80;1795033;78;28068;-86
2022/08/29 07:29:07;;;;;;;8.38;5.10;;;;;;;19.10;100.00;98516.80;1782050;78;28097;-85
2022/08/29 07:31:34;;;;;;;8.50;4.00;;;;;;;19.17;100.00;98520.49;1791622;78;28120;-85
2022/08/29 07:34:01;;;;;;;7.65;5.15;;;;;;;19.26;100.00;98520.02;1787498;79;28097;-86
2022/08/29 07:36:27;;;;;;;7.08;4.75;;;;;;;19.35;100.00;98523.89;1788919;78;28120;-86
2022/08/29 07:38:58;;;;;;;10.03;4.85;;;;;;;19.39;100.00;98523.06;1790114;79;28106;-86
2022/08/29 07:41:23;;;;;;;8.75;4.90;;;;;;;19.49;100.00;98526.45;1787726;78;28074;-86
2022/08/29 07:43:49;;;;;;;5.83;4.50;;;;;;;19.57;100.00;98529.98;1788818;78;28073;-86
2022/08/29 07:46:18;;;;;;;8.55;4.80;;;;;;;19.67;100.00;98529.00;1791993;79;28021;-86
2022/08/29 07:48:45;;;;;;;10.05;5.08;;;;;;;19.69;100.00;98527.02;1791361;78;28109;-86
2022/08/29 07:51:25;;;;;;;11.88;6.17;;;;;;;19.72;100.00;98528.02;1789703;78;28153;-86
2022/08/29 07:53:55;;;;;;;10.10;5.78;;;;;;;19.68;100.00;98532.83;1773144;79;28079;-86
2022/08/29 07:56:27;;;;;;;6.30;4.15;;;;;;;19.66;100.00;98528.66;1789354;79;28092;-86
2022/08/29 07:58:54;;;;;;;8.63;5.67;;;;;;;19.69;100.00;98530.52;1794785;79;28087;-86
2022/08/29 08:01:21;;;;;;;9.13;4.97;;;;;;;19.76;100.00;98529.34;1790561;79;28077;-86
2022/08/29 08:03:51;;;;;;;7.83;4.40;;;;;;;19.78;100.00;98527.37;1790292;79;28184;-86
2022/08/29 08:06:20;;;;;;;10.38;4.25;;;;;;;19.77;100.00;98533.17;1790370;78;28121;-86
2022/08/29 08:08:47;;;;;;;12.07;5.20;;;;;;;19.81;100.00;98535.00;1785227;78;28076;-86
2022/08/29 08:11:17;;;;;;;8.93;4.53;;;;;;;19.74;100.00;98534.84;1793367;78;28173;-86
2022/08/29 08:13:44;;;;;;;7.67;4.15;;;;;;;19.76;100.00;98535.48;1808896;78;28080;-86
2022/08/29 08:16:16;;;;;;;10.18;4.67;;;;;;;19.76;100.00;98539.47;1811730;78;28069;-86
2022/08/29 08:18:43;;;;;;;11.50;5.50;;;;;;;19.83;100.00;98543.64;1807506;78;28069;-86
2022/08/29 08:21:10;;;;;;;9.83;6.47;;;;;;;19.93;100.00;98541.17;1806058;78;28068;-86
2022/08/29 08:23:38;;;;;;;9.70;6.50;;;;;;;20.00;100.00;98548.00;1806880;78;28122;-86
2022/08/29 08:26:05;;;;;;;11.68;7.03;;;;;;;20.10;100.00;98546.51;1801797;78;28159;-86
2022/08/29 08:28:31;;;;;;;12.73;7.47;;;;;;;20.18;100.00;98554.50;1808102;78;28034;-86
2022/08/29 08:30:59;;;;;;;14.40;8.10;;;;;;;20.19;100.00;98552.16;1810447;78;28043;-86
2022/08/29 08:33:26;;;;;;;12.60;8.35;;;;;;;20.21;100.00;98552.83;1808071;78;28186;-86
2022/08/29 08:35:53;;;;;;;13.13;7.47;;;;;;;20.31;100.00;98557.02;1813204;78;28470;-86
2022/08/29 08:38:20;;;;;;;11.25;7.70;;;;;;;20.37;100.00;98552.87;1809472;78;28142;-86
2022/08/29 08:40:55;;;;;;;13.62;8.18;;;;;;;20.44;100.00;98553.39;1805347;78;28132;-86
2022/08/29 08:43:25;;;;;;;9.80;6.87;;;;;;;20.57;100.00;98555.52;1805403;78;28131;-86
2022/08/29 08:45:52;;;;;;;10.65;7.70;;;;;;;20.64;100.00;98550.37;1808113;78;28149;-86
2022/08/29 08:48:30;;;;;;;11.45;6.85;;;;;;;20.63;100.00;98555.34;1807960;78;28166;-86
2022/08/29 08:51:15;;;;;;;11.38;5.65;;;;;;;20.64;100.00;98552.53;1803289;78;28082;-86
2022/08/29 08:53:44;;;;;;;11.40;5.83;;;;;;;20.52;100.00;98553.03;1809600;78;28041;-86
2022/08/29 08:56:14;;;;;;;10.53;6.03;;;;;;;20.30;100.00;98551.34;1809740;78;28061;-86
2022/08/29 08:58:50;;;;;;;13.53;5.72;;;;;;;20.22;100.00;98555.83;1815985;78;28151;-86
2022/08/29 09:01:19;;;;;;;11.83;5.37;;;;;;;20.26;100.00;98543.38;1804713;78;28077;-86
2022/08/29 09:04:17;;;;;;;16.57;5.83;;;;;;;20.32;100.00;98545.40;1803805;78;28167;-86
2022/08/29 09:07:13;;;;;;;9.63;5.95;;;;;;;20.44;100.00;98550.72;1809593;78;28113;-86
2022/08/29 09:10:03;;;;;;;8.95;5.65;;;;;;;20.50;100.00;98559.03;1808599;78;28080;-87
2022/08/29 09:12:59;;;;;;;10.28;5.40;;;;;;;20.57;100.00;98554.69;1798440;78;28113;-86
2022/08/29 09:15:34;;;;;;;7.78;5.72;;;;;;;20.67;100.00;98552.21;1740565;79;28105;-85
2022/08/29 09:18:08;;;;;;;11.30;5.65;;;;;;;20.81;100.00;98549.35;1762847;79;27989;-85
2022/08/29 09:20:37;;;;;;;9.68;6.30;;;;;;;20.77;100.00;98546.20;1791728;78;28088;-85
2022/08/29 09:23:17;;;;;;;9.63;4.97;;;;;;;20.77;100.00;98542.22;1790286;78;28079;-85
2022/08/29 09:25:43;;;;;;;8.80;5.10;;;;;;;20.88;100.00;98547.19;1789759;78;28102;-85
2022/08/29 09:28:10;;;;;;;10.90;5.80;;;;;;;21.00;100.00;98550.30;1796432;78;28061;-85
2022/08/29 09:30:40;;;;;;;10.55;5.30;;;;;;;21.09;100.00;98548.46;1788254;79;28103;-85
2022/08/29 09:33:15;;;;;;;8.27;5.67;;;;;;;21.04;100.00;98547.65;1789144;79;28173;-85
2022/08/29 09:35:50;;;;;;;9.33;5.55;;;;;;;21.05;100.00;98549.81;1788698;78;28012;-85
2022/08/29 09:38:20;;;;;;;6.72;3.98;;;;;;;21.04;100.00;98552.97;1791371;78;28482;-85
2022/08/29 09:40:59;;;;;;;8.93;4.90;;;;;;;20.96;100.00;98552.97;1759964;79;28082;-85
2022/08/29 09:43:45;;;;;;;10.15;5.15;;;;;;;21.05;100.00;98559.13;1798070;78;28101;-85
2022/08/29 09:46:24;;;;;;;9.35;4.80;;;;;;;21.22;100.00;98559.45;1792112;78;28065;-85
2022/08/29 09:49:00;;;;;;;8.23;4.45;;;;;;;21.12;100.00;98558.25;1763545;79;28187;-85
2022/08/29 09:51:37;;;;;;;8.25;4.75;;;;;;;21.02;100.00;98552.30;1785134;78;28182;-85
2022/08/29 09:54:30;;;;;;;5.90;4.33;;;;;;;21.24;100.00;98550.77;1786674;79;28053;-86
2022/08/29 09:57:19;;;;;;;7.55;4.70;;;;;;;21.39;100.00;98549.54;1792237;79;28103;-85
2022/08/29 09:59:49;;;;;;;11.65;5.15;;;;;;;21.40;100.00;98544.55;1789175;79;28151;-85
2022/08/29 10:02:33;;;;;;;6.85;4.47;;;;;;;21.51;100.00;98547.66;1791576;78;28078;-85
2022/08/29 10:05:04;;;;;;;5.40;4.30;;;;;;;21.52;100.00;98548.50;1790761;79;28071;-85
2022/08/29 10:07:48;;;;;;;7.00;4.40;;;;;;;21.41;100.00;98546.22;1792141;79;28090;-85
2022/08/29 10:10:21;;;;;;;6.47;4.58;;;;;;;21.45;100.00;98542.20;1793841;78;27997;-85
2022/08/29 10:13:15;;;;;;;7.00;4.60;;;;;;;21.50;100.00;98543.34;1797580;77;28023;-85
2022/08/29 10:15:45;;;;;;;5.95;4.20;;;;;;;21.42;100.00;98540.73;1810710;77;28062;-86
2022/08/29 10:18:35;;;;;;;7.60;4.30;;;;;;;21.41;100.00;98532.41;1814135;77;28049;-85
2022/08/29 10:21:23;;;;;;;8.60;4.87;;;;;;;21.39;100.00;98537.56;1813333;76;28099;-85
2022/08/29 10:24:06;;;;;;;7.15;4.42;;;;;;;21.50;100.00;98529.19;1715980;79;28159;-85
2022/08/29 10:26:48;;;;;;;8.93;4.85;;;;;;;21.59;100.00;98530.83;1691872;82;28094;-85
2022/08/29 10:29:41;;;;;;;6.67;4.40;;;;;;;21.61;100.00;98532.80;1757656;80;28105;-85
2022/08/29 10:32:23;;;;;;;8.75;5.15;;;;;;;21.80;100.00;98530.20;1755463;80;28152;-86
2022/08/29 10:34:54;;;;;;;8.45;4.45;;;;;;;21.89;100.00;98527.81;1759408;80;28093;-85
2022/08/29 10:37:47;;;;;;;7.55;4.40;;;;;;;21.97;100.00;98528.64;1752044;80;28002;-85
2022/08/29 10:40:21;;;;;;;8.18;4.00;;;;;;;22.06;100.00;98524.90;1765751;80;27992;-85
2022/08/29 10:42:51;;;;;;;4.90;3.80;;;;;;;22.17;100.00;98525.48;1756421;80;28120;-85
2022/08/29 10:45:33;;;;;;;7.30;4.53;;;;;;;22.22;100.00;98518.61;1760563;80;28087;-85
2022/08/29 10:48:12;;;;;;;6.90;4.40;;;;;;;22.25;100.00;98515.61;1756018;80;28252;-85
2022/08/29 10:50:57;;;;;;;7.57;4.30;;;;;;;22.33;100.00;98510.69;1765752;80;28162;-85
2022/08/29 10:53:26;;;;;;;6.10;3.53;;;;;;;22.52;100.00;98513.70;1751965;80;28128;-85
2022/08/29 10:56:20;;;;;;;7.22;4.55;;;;;;;22.66;100.00;98511.23;1763775;80;27996;-85
2022/08/29 10:59:17;;;;;;;6.28;3.80;;;;;;;22.75;100.00;98508.83;1751460;80;28086;-85
2022/08/29 11:02:07;;;;;;;5.35;4.53;;;;;;;22.73;100.00;98513.03;1761026;80;28059;-85
2022/08/29 11:04:40;;;;;;;8.40;3.90;;;;;;;22.68;100.00;98511.88;1760324;80;28065;-86
2022/08/29 11:07:15;;;;;;;5.22;4.40;;;;;;;22.50;100.00;98514.87;1757048;80;28124;-85
2022/08/29 11:09:50;;;;;;;7.42;4.30;;;;;;;22.43;100.00;98509.94;1755202;80;27980;-85
2022/08/29 11:12:43;;;;;;;8.73;4.50;;;;;;;22.29;100.00;98510.23;1759444;80;28124;-85
2022/08/29 11:15:15;;;;;;;5.95;3.95;;;;;;;22.07;100.00;98505.23;1761175;80;28113;-85
2022/08/29 11:17:51;;;;;;;5.28;3.30;;;;;;;21.95;100.00;98513.31;1757724;80;28164;-85
2022/08/29 11:20:24;;;;;;;7.70;4.03;;;;;;;21.88;100.00;98513.66;1726187;82;28143;-85
2022/08/29 11:23:14;;;;;;;6.12;3.60;;;;;;;21.80;100.00;98503.06;1761505;80;28093;-85
2022/08/29 11:25:43;;;;;;;6.95;4.37;;;;;;;21.71;100.00;98506.27;1750693;81;28094;-85
2022/08/29 11:28:38;;;;;;;8.55;4.70;;;;;;;21.68;100.00;98497.80;1750871;81;28086;-85
2022/08/29 11:31:32;;;;;;;7.28;4.05;;;;;;;21.66;100.00;98503.30;1716400;82;28465;-85
2022/08/29 11:34:02;;;;;;;6.92;4.00;;;;;;;21.70;100.00;98500.64;1748803;81;28084;-85
2022/08/29 11:36:49;;;;;;;8.08;4.72;;;;;;;21.88;100.00;98495.00;1740176;81;28061;-85
2022/08/29 11:39:34;;;;;;;6.95;4.47;;;;;;;21.97;100.00;98495.83;1752445;81;28015;-85
2022/08/29 11:42:03;;;;;;;6.78;4.40;;;;;;;22.02;100.00;98497.45;1750777;81;28156;-86